x

Halibut Bank (46146) Wave Buoy

12:00 - Tue 7th Jul 2015 All times are PDT. -7 hours from GMT.

  • Sig Wave height 0.7ft
  • Peak Period 3s
  • Wind
    7mph, 9mph gusts
  • Sea Temp 61°f
  • Air Temp 62°f
  • Sea Pressure 1016.2mb
  • Halibut Bank
  • Halibut Bank

More Historic Weather Station data

Upgrade to MSW Pro to gain access to the past 30 days of data for over 8000 Wavebouys and Weather Stations around the globe.

Join Pro

Comparision Forecast

View Surf forecast
   
mar. 07/07 12:00 0.7ft 3s 7 9 mph 1016.2mb 61f 62f
11:00 1ft 3s 9
mph
1016.7mb 61f 63f
10:00 1ft 3s 9 11 mph 1017mb 62f 62f
9:00 1ft 3s 11
mph
1017.1mb 62f 62f
8:00 0.7ft 2s 11
mph
1017.1mb 62f 62f
7:00 0.7ft 3s 9 11 mph 1017mb 63f 62f
6:00 0.3ft 2s 7
mph
1016.7mb 63f 63f
5:00 0.7ft 3s 4
mph
1016.3mb 64f 63f
4:00 0.7ft 2s 2 4 mph 1016mb 64f 64f
3:00 0.7ft 2s  -  mph 1015.7mb 63f 63f
2:00 0.3ft 2s  -  2 mph 1015.3mb 61f 63f
1:00 0.3ft 2s 4 7 mph 1015mb 61f 64f
12:00 0.3ft 3s 4 7 mph 1014.6mb 62f 64f
lun. 07/06 11:00 0.3ft 6s 4
mph
1014.3mb 63f 64f
10:00 0.3ft 2s 7
mph
1014mb 63f 65f
9:00 0.3ft 5s 4 7 mph 1013.6mb 64f 66f
8:00 0.3ft 3s 7 9 mph 1013.3mb 65f 67f
7:00 0.7ft 6s 4 7 mph 1013.6mb 65f 67f
6:00 0.7ft 6s 7
mph
1013.9mb 65f 67f
5:00 0.7ft 3s 7
mph
1014.3mb 65f 66f
4:00 0.7ft 3s 7
mph
1014.6mb 65f 66f
3:00 0.7ft 3s 9 11 mph 1015mb 64f 66f
2:00 1ft 3s 9
mph
1015.1mb 64f 65f
1:00 1ft 3s 9 11 mph 1015.3mb 63f 64f
12:00 1ft 3s 16 18 mph 1015.1mb 63f 64f
11:00 1ft 3s 11 13 mph 1015.2mb 63f 65f
10:00 1ft 2s 13
mph
1014.8mb 63f 65f
9:00 0.7ft 2s 13 16 mph 1014.6mb 64f 65f
8:00 0.3ft 4s 9 13 mph 1014.5mb 64f 65f
7:00 0.3ft 2s 7
mph
1013.9mb 64f 65f
6:00  -  2s 7 9 mph 1013.3mb 64f 65f
5:00 0.3ft 4s 4
mph
1013.1mb 64f 64f
4:00 0.3ft 2s 2 4 mph 1012.7mb 64f 68f
3:00 0.3ft 2s 4 7 mph 1012.3mb 64f 67f
2:00 0.3ft 3s 4
mph
1011.7mb 65f 67f
1:00 0.3ft 2s 4
mph
1011.1mb 65f 66f
12:00 0.3ft 2s 7 9 mph 1010.5mb 65f 68f
dim. 07/05 11:00 0.7ft 3s 9 11 mph 1009.9mb 65f 67f
10:00 0.7ft 3s 9 11 mph 1009.9mb 65f 68f
9:00 0.7ft 3s 11 13 mph 1009.4mb 65f 69f
8:00 0.7ft 3s 13 16 mph 1009.5mb 66f 69f
7:00 0.7ft 4s 11 13 mph 1009.5mb 65f 67f
6:00 0.7ft 7s 11 13 mph 1009.9mb 65f 68f
5:00 0.7ft 2s 9 11 mph 1010.4mb 65f 68f
4:00 0.7ft 3s 11 13 mph 1010.7mb 65f 68f
3:00 0.7ft 3s 11 13 mph 1011.3mb 65f 67f
2:00 0.7ft 2s 11 13 mph 1011.7mb 65f 66f
1:00 0.7ft 3s 11 13 mph 1012mb 65f 66f
12:00 0.7ft 3s 11 13 mph 1012.1mb 64f 64f
11:00 0.7ft 2s 9
mph
1012.2mb 63f 63f
10:00 0.7ft 4s 11 13 mph 1012.2mb 63f 63f
9:00 1ft 6s 9 11 mph 1012.4mb 62f 62f
8:00 0.7ft 2s 9 11 mph 1011.9mb 63f 62f
7:00 1ft 3s 9 11 mph 1011.6mb 64f 63f
6:00 1ft 3s 13 16 mph 1011mb 64f 64f
5:00 1ft 3s 11 16 mph 1010.7mb 63f 64f
4:00 1ft 3s 13 16 mph 1010.6mb 63f 65f
3:00 1ft 4s 13 16 mph 1010.3mb 62f 64f
2:00 1.3ft 4s 11 13 mph 1010mb 61f 64f
1:00 1.6ft 4s 13 16 mph 1009.6mb 62f 64f
12:00 1.3ft 3s 16 18 mph 1009mb 60f 65f
sam. 07/04 11:00 1.6ft 4s 18 22 mph 1008.2mb 59f 65f
10:00 1.6ft 3s 20 22 mph 1007.1mb 61f 66f
9:00 1.6ft 3s 22 25 mph 1006.8mb 62f 67f
8:00 1.3ft 3s 22 25 mph 1006.7mb 62f 69f
7:00 1.3ft 3s 20 22 mph 1006.8mb 62f 68f
6:00 1.3ft 3s 16 18 mph 1007.4mb 61f 67f
5:00 1.3ft 3s 18
mph
1007.8mb 61f 68f
4:00 1.3ft 3s 16 18 mph 1008.5mb 60f 67f
3:00 1.3ft 3s 16 18 mph 1009.4mb 59f 65f
2:00 1.3ft 4s 18 20 mph 1010.1mb 59f 65f
1:00 1.6ft 3s 16 18 mph 1010.7mb 59f 63f
12:00 1.6ft 4s 13 16 mph 1011.3mb 58f 62f
11:00 2ft 4s 18 20 mph 1011.7mb 58f 61f
10:00 2ft 4s 18 20 mph 1011.9mb 58f 61f
9:00 2ft 4s 18 20 mph 1012.2mb 58f 60f
6:00 2.5ft 4s 16 18 mph 1011.6mb 59f 61f
5:00 2.5ft 4s 13 18 mph 1011.4mb 58f 62f
4:00 2.5ft 4s 13 18 mph 1011.3mb 58f 62f
3:00 2.5ft 4s 16 18 mph 1011.4mb 58f 63f
2:00 2.5ft 4s 18 22 mph 1011mb 59f 63f
1:00 2.5ft 4s 20 25 mph 1010.7mb 59f 64f
12:00 2.5ft 4s 22 25 mph 1010.2mb 58f 64f
ven. 07/03 11:00 2.5ft 4s 22 25 mph 1010.1mb 57f 64f
10:00 2.5ft 4s 22 25 mph 1010.1mb 57f 65f
9:00 2ft 3s 20 22 mph 1009.8mb 58f 66f